Time;durP1;ratioP1;P1;durP2;ratioP2;P2;SDS_P1;SDS_P2;PMS_P1;PMS_P2;Temp;Humidity;BMP_temperature;BMP_pressure;BME280_temperature;BME280_humidity;BME280_pressure;Samples;Min_cycle;Max_cycle;Signal;HPM_P1;HPM_P2
2022/06/07 00:00:06;;;;;;;9.10;4.90;;;;;;;;;;5068764;28;20029;-74
2022/06/07 00:02:33;;;;;;;11.70;4.68;;;;;;;;;;5068983;28;20527;-74
2022/06/07 00:04:59;;;;;;;12.57;5.43;;;;;;;;;;5066173;28;20055;-74
2022/06/07 00:07:26;;;;;;;12.90;4.93;;;;;;;;;;5061505;28;20033;-74
2022/06/07 00:09:53;;;;;;;9.27;5.43;;;;;;;;;;5072759;28;20029;-74
2022/06/07 00:12:19;;;;;;;12.35;5.22;;;;;;;;;;5088464;28;20079;-74
2022/06/07 00:14:46;;;;;;;8.32;5.68;;;;;;;;;;5056280;28;20044;-74
2022/06/07 00:17:12;;;;;;;7.03;4.82;;;;;;;;;;5064241;28;20040;-74
2022/06/07 00:19:39;;;;;;;10.38;5.35;;;;;;;;;;5070889;28;20078;-74
2022/06/07 00:22:05;;;;;;;13.05;6.95;;;;;;;;;;5064171;28;20035;-74
2022/06/07 00:24:31;;;;;;;11.35;4.82;;;;;;;;;;5074253;28;20089;-74
2022/06/07 00:26:58;;;;;;;10.77;5.07;;;;;;;;;;5078529;28;20517;-73
2022/06/07 00:29:25;;;;;;;14.40;5.72;;;;;;;;;;5066213;28;20036;-74
2022/06/07 00:31:51;;;;;;;11.73;5.88;;;;;;;;;;5066724;28;20119;-72
2022/06/07 00:34:17;;;;;;;8.95;4.88;;;;;;;;;;5071410;28;20044;-73
2022/06/07 00:36:43;;;;;;;14.45;5.18;;;;;;;;;;5071131;28;20088;-72
2022/06/07 00:39:10;;;;;;;12.13;5.20;;;;;;;;;;5069380;28;20035;-72
2022/06/07 00:41:36;;;;;;;23.63;5.97;;;;;;;;;;5077697;28;20028;-72
2022/06/07 00:44:19;;;;;;;11.05;6.03;;;;;;;;;;5077312;28;20036;-73
2022/06/07 00:46:46;;;;;;;17.52;5.43;;;;;;;;;;5051728;28;20035;-73
2022/06/07 00:49:13;;;;;;;12.98;5.35;;;;;;;;;;5073722;28;20108;-72
2022/06/07 00:51:39;;;;;;;12.68;5.40;;;;;;;;;;5059017;28;20029;-72
2022/06/07 00:54:06;;;;;;;13.38;6.55;;;;;;;;;;5063322;28;20067;-73
2022/06/07 00:56:32;;;;;;;14.35;5.63;;;;;;;;;;5075999;28;20021;-73
2022/06/07 00:59:03;;;;;;;15.98;6.47;;;;;;;;;;5073058;28;20113;-72
2022/06/07 01:01:29;;;;;;;20.95;6.47;;;;;;;;;;5065760;28;20493;-73
2022/06/07 01:03:55;;;;;;;15.88;6.45;;;;;;;;;;5063289;28;20107;-72
2022/06/07 01:11:50;;;;;;;13.88;5.35;;;;;;;;;;5085512;28;20081;-74
2022/06/07 01:14:16;;;;;;;17.65;7.18;;;;;;;;;;5065642;28;20496;-74
2022/06/07 01:16:42;;;;;;;14.13;6.63;;;;;;;;;;5077125;28;20040;-73
2022/06/07 01:19:08;;;;;;;12.77;6.68;;;;;;;;;;5073971;28;20029;-73
2022/06/07 01:21:35;;;;;;;11.63;6.05;;;;;;;;;;5064908;28;20494;-73
2022/06/07 01:24:01;;;;;;;14.98;6.07;;;;;;;;;;5063110;28;20056;-73
2022/06/07 01:26:27;;;;;;;9.50;6.15;;;;;;;;;;5051706;28;20079;-73
2022/06/07 01:28:53;;;;;;;14.10;6.00;;;;;;;;;;5060664;28;20365;-73
2022/06/07 01:31:19;;;;;;;11.13;6.05;;;;;;;;;;5069022;28;20041;-73
2022/06/07 01:33:46;;;;;;;18.50;7.20;;;;;;;;;;5074866;28;20024;-73
2022/06/07 01:36:13;;;;;;;13.43;5.72;;;;;;;;;;5039799;28;20036;-73
2022/06/07 01:38:40;;;;;;;13.27;6.95;;;;;;;;;;5072806;28;20119;-72
2022/06/07 01:43:51;;;;;;;12.65;5.68;;;;;;;;;;5081761;28;20040;-72
2022/06/07 01:46:18;;;;;;;13.82;5.93;;;;;;;;;;5067463;28;20496;-73
2022/06/07 01:48:46;;;;;;;16.08;7.53;;;;;;;;;;5057887;28;20032;-72
2022/06/07 01:51:12;;;;;;;12.48;6.25;;;;;;;;;;5088276;28;20036;-73
2022/06/07 01:53:39;;;;;;;14.23;6.07;;;;;;;;;;5074147;28;20104;-73
2022/06/07 01:56:07;;;;;;;13.88;6.82;;;;;;;;;;5087788;28;20020;-72
2022/06/07 01:58:33;;;;;;;9.95;5.90;;;;;;;;;;5062562;28;20037;-72
2022/06/07 02:00:59;;;;;;;10.50;6.40;;;;;;;;;;5049866;28;20037;-73
2022/06/07 02:03:25;;;;;;;11.40;6.18;;;;;;;;;;5053241;28;20116;-73
2022/06/07 02:05:56;;;;;;;12.98;6.75;;;;;;;;;;5075994;28;20029;-73
2022/06/07 02:08:21;;;;;;;17.90;7.85;;;;;;;;;;5069954;28;20523;-73
2022/06/07 02:10:48;;;;;;;14.02;7.20;;;;;;;;;;5049831;28;20040;-73
2022/06/07 02:13:14;;;;;;;17.73;7.38;;;;;;;;;;5065945;28;20044;-73
2022/06/07 02:15:40;;;;;;;10.75;6.70;;;;;;;;;;5077603;28;20035;-73
2022/06/07 02:18:06;;;;;;;17.95;8.15;;;;;;;;;;5067320;28;20037;-73
2022/06/07 02:20:32;;;;;;;20.17;7.47;;;;;;;;;;5065751;28;20028;-73
2022/06/07 02:22:58;;;;;;;16.77;6.90;;;;;;;;;;5069960;28;20472;-73
2022/06/07 02:25:24;;;;;;;15.63;7.95;;;;;;;;;;5077454;28;20035;-73
2022/06/07 02:27:50;;;;;;;15.63;8.00;;;;;;;;;;5080267;28;21036;-73
2022/06/07 02:30:16;;;;;;;11.90;6.93;;;;;;;;;;5074052;28;20483;-73
2022/06/07 02:32:42;;;;;;;21.77;8.05;;;;;;;;;;5071638;28;20047;-73
2022/06/07 02:35:09;;;;;;;11.77;7.13;;;;;;;;;;5070607;28;20377;-73
2022/06/07 02:37:38;;;;;;;13.00;7.07;;;;;;;;;;5074347;28;20469;-73
2022/06/07 02:40:05;;;;;;;17.67;7.65;;;;;;;;;;5074493;28;20040;-73
2022/06/07 02:42:31;;;;;;;14.80;7.28;;;;;;;;;;5037149;28;20025;-73
2022/06/07 02:44:58;;;;;;;15.57;7.50;;;;;;;;;;5069968;28;20025;-73
2022/06/07 02:47:24;;;;;;;13.52;8.18;;;;;;;;;;5075237;28;20032;-74
2022/06/07 02:49:52;;;;;;;19.95;7.95;;;;;;;;;;5072145;28;20036;-74
2022/06/07 02:52:19;;;;;;;16.75;8.82;;;;;;;;;;5067158;28;20044;-74
2022/06/07 02:54:45;;;;;;;12.55;8.15;;;;;;;;;;5072372;28;20032;-73
2022/06/07 02:57:11;;;;;;;16.15;7.95;;;;;;;;;;5054092;28;20082;-73
2022/06/07 02:59:37;;;;;;;17.55;7.95;;;;;;;;;;5054887;28;20078;-73
2022/06/07 03:02:03;;;;;;;18.98;7.53;;;;;;;;;;5091675;28;20048;-74
2022/06/07 03:04:29;;;;;;;14.30;7.63;;;;;;;;;;5062005;28;20091;-74
2022/06/07 03:06:55;;;;;;;11.23;7.07;;;;;;;;;;5050643;28;20381;-74
2022/06/07 03:09:21;;;;;;;15.70;7.43;;;;;;;;;;5076582;28;20103;-73
2022/06/07 03:11:47;;;;;;;13.90;7.65;;;;;;;;;;5082480;28;20123;-73
2022/06/07 03:14:13;;;;;;;11.40;6.97;;;;;;;;;;5083362;28;20432;-73
2022/06/07 03:16:39;;;;;;;12.98;6.38;;;;;;;;;;5082035;28;20107;-73
2022/06/07 03:19:05;;;;;;;13.35;7.43;;;;;;;;;;5080627;28;20032;-73
2022/06/07 03:21:32;;;;;;;11.18;6.40;;;;;;;;;;5077976;28;20020;-73
2022/06/07 03:23:58;;;;;;;12.82;6.43;;;;;;;;;;5065700;28;20732;-73
2022/06/07 03:26:24;;;;;;;12.75;5.53;;;;;;;;;;5074237;28;20426;-73
2022/06/07 03:28:50;;;;;;;17.35;5.45;;;;;;;;;;5090715;28;20479;-73
2022/06/07 03:31:17;;;;;;;9.88;5.78;;;;;;;;;;5070941;28;20048;-72
2022/06/07 03:33:44;;;;;;;11.70;5.00;;;;;;;;;;5093998;28;20054;-73
2022/06/07 03:36:16;;;;;;;8.93;4.65;;;;;;;;;;5065940;28;20116;-73
2022/06/07 03:38:42;;;;;;;11.75;4.25;;;;;;;;;;5073542;28;20028;-72
2022/06/07 03:41:09;;;;;;;8.93;4.32;;;;;;;;;;5079714;28;20028;-71
2022/06/07 03:43:36;;;;;;;7.75;4.18;;;;;;;;;;5082496;28;20120;-74
2022/06/07 03:46:09;;;;;;;13.02;4.70;;;;;;;;;;5074039;28;20124;-72
2022/06/07 03:48:35;;;;;;;11.35;4.05;;;;;;;;;;5075938;28;20032;-73
2022/06/07 03:51:01;;;;;;;10.23;3.83;;;;;;;;;;5073589;28;20037;-73
2022/06/07 03:53:27;;;;;;;16.40;4.13;;;;;;;;;;5088861;28;20032;-72
2022/06/07 03:55:54;;;;;;;10.23;3.83;;;;;;;;;;5067445;28;20219;-72
2022/06/07 03:58:20;;;;;;;12.27;3.78;;;;;;;;;;5050635;28;20429;-72
2022/06/07 04:00:48;;;;;;;15.13;4.07;;;;;;;;;;5065311;28;20488;-73
2022/06/07 04:03:14;;;;;;;11.52;4.55;;;;;;;;;;5081176;28;20032;-73
2022/06/07 04:05:41;;;;;;;18.08;5.47;;;;;;;;;;5038864;28;20048;-73
2022/06/07 04:08:10;;;;;;;9.80;4.90;;;;;;;;;;5068624;28;22788;-73
2022/06/07 04:10:36;;;;;;;10.90;5.15;;;;;;;;;;5075816;28;20041;-73
2022/06/07 04:13:02;;;;;;;19.35;5.18;;;;;;;;;;5080969;28;20079;-73
2022/06/07 04:15:29;;;;;;;11.40;4.72;;;;;;;;;;5075435;28;20367;-73
2022/06/07 04:17:55;;;;;;;14.13;4.32;;;;;;;;;;5074085;28;20108;-74
2022/06/07 04:20:22;;;;;;;18.05;4.63;;;;;;;;;;5066476;28;20055;-73
2022/06/07 04:22:48;;;;;;;9.73;4.40;;;;;;;;;;5072990;28;20034;-73
2022/06/07 04:25:14;;;;;;;13.18;5.00;;;;;;;;;;5083888;28;20119;-73
2022/06/07 04:27:40;;;;;;;11.35;4.40;;;;;;;;;;5068240;28;20023;-72
2022/06/07 04:30:06;;;;;;;9.77;4.75;;;;;;;;;;5072918;28;20033;-72
2022/06/07 04:32:33;;;;;;;12.40;4.70;;;;;;;;;;5056112;28;20101;-73
2022/06/07 04:34:59;;;;;;;8.65;5.10;;;;;;;;;;5075206;28;20024;-73
2022/06/07 04:37:25;;;;;;;15.73;5.68;;;;;;;;;;5070466;28;20107;-73
2022/06/07 04:39:51;;;;;;;13.10;6.15;;;;;;;;;;5074810;28;20154;-73
2022/06/07 04:42:17;;;;;;;15.80;6.57;;;;;;;;;;5065859;28;20389;-72
2022/06/07 04:44:43;;;;;;;10.13;5.90;;;;;;;;;;5051498;28;20032;-73
2022/06/07 04:47:09;;;;;;;15.90;6.20;;;;;;;;;;5074222;28;20034;-73
2022/06/07 04:49:35;;;;;;;11.75;6.47;;;;;;;;;;5066281;28;20381;-73
2022/06/07 04:52:01;;;;;;;12.65;7.32;;;;;;;;;;5060731;28;20033;-74
2022/06/07 04:54:27;;;;;;;18.80;7.18;;;;;;;;;;5064647;28;20047;-74
2022/06/07 04:56:55;;;;;;;13.02;6.18;;;;;;;;;;5063684;28;20484;-74
2022/06/07 04:59:21;;;;;;;15.90;6.30;;;;;;;;;;5068099;28;20048;-74
2022/06/07 05:01:47;;;;;;;16.15;5.75;;;;;;;;;;5068080;28;20424;-75
2022/06/07 05:04:13;;;;;;;11.68;5.05;;;;;;;;;;5071709;28;20044;-74
2022/06/07 05:06:41;;;;;;;10.25;4.93;;;;;;;;;;5080799;28;20032;-74
2022/06/07 05:09:09;;;;;;;11.25;4.95;;;;;;;;;;5060883;28;20032;-74
2022/06/07 05:11:35;;;;;;;14.05;4.22;;;;;;;;;;5080474;28;20032;-74
2022/06/07 05:14:03;;;;;;;11.85;4.57;;;;;;;;;;5067287;28;20026;-76
2022/06/07 05:16:29;;;;;;;8.95;4.28;;;;;;;;;;5063328;28;20454;-73
2022/06/07 05:18:55;;;;;;;12.70;4.63;;;;;;;;;;5093980;28;20041;-74
2022/06/07 05:21:22;;;;;;;15.82;4.18;;;;;;;;;;5068797;28;20366;-74
2022/06/07 05:23:48;;;;;;;7.28;2.55;;;;;;;;;;5070199;28;20032;-74
2022/06/07 05:26:17;;;;;;;6.85;3.08;;;;;;;;;;5068705;28;20041;-74
2022/06/07 05:28:44;;;;;;;7.00;2.03;;;;;;;;;;5052500;28;20496;-73
2022/06/07 05:31:11;;;;;;;5.78;2.40;;;;;;;;;;5068872;28;20040;-75
2022/06/07 05:33:37;;;;;;;11.52;2.83;;;;;;;;;;5072059;28;20028;-74
2022/06/07 05:36:03;;;;;;;8.70;2.25;;;;;;;;;;5077131;28;20039;-75
2022/06/07 05:38:30;;;;;;;8.98;2.90;;;;;;;;;;5074129;28;20476;-74
2022/06/07 05:40:56;;;;;;;8.98;2.83;;;;;;;;;;5065676;28;20060;-72
2022/06/07 05:43:22;;;;;;;8.63;3.00;;;;;;;;;;5055005;28;20052;-71
2022/06/07 05:45:48;;;;;;;14.15;5.68;;;;;;;;;;5073513;28;20081;-71
2022/06/07 05:48:15;;;;;;;13.65;4.20;;;;;;;;;;5065224;28;20033;-72
2022/06/07 05:50:41;;;;;;;8.68;2.58;;;;;;;;;;5063258;28;20032;-73
2022/06/07 05:53:07;;;;;;;7.75;3.00;;;;;;;;;;5068260;28;20050;-72
2022/06/07 05:55:32;;;;;;;7.82;2.63;;;;;;;;;;5067773;28;20057;-72
2022/06/07 05:57:58;;;;;;;8.57;2.47;;;;;;;;;;5069067;28;20032;-72
2022/06/07 06:00:24;;;;;;;8.05;3.40;;;;;;;;;;5065348;28;20404;-72
2022/06/07 06:02:51;;;;;;;9.43;2.83;;;;;;;;;;5071802;28;20032;-72
2022/06/07 06:05:17;;;;;;;8.38;2.78;;;;;;;;;;5058750;28;20483;-72
2022/06/07 06:10:28;;;;;;;6.57;2.20;;;;;;;;;;5066526;28;20114;-72
2022/06/07 06:12:55;;;;;;;7.35;2.40;;;;;;;;;;5075499;28;20063;-72
2022/06/07 06:15:21;;;;;;;4.32;1.92;;;;;;;;;;5073629;28;20025;-72
2022/06/07 06:17:47;;;;;;;6.00;2.45;;;;;;;;;;5067302;28;20376;-73
2022/06/07 06:20:14;;;;;;;14.45;3.38;;;;;;;;;;5056561;28;20032;-72
2022/06/07 06:22:40;;;;;;;5.07;1.63;;;;;;;;;;5065477;28;20438;-72
2022/06/07 06:25:07;;;;;;;6.45;1.85;;;;;;;;;;5063940;28;20024;-72
2022/06/07 06:27:33;;;;;;;7.05;1.80;;;;;;;;;;5066785;28;20029;-72
2022/06/07 06:30:00;;;;;;;9.73;2.38;;;;;;;;;;5061320;28;20106;-72
2022/06/07 06:32:26;;;;;;;8.77;2.70;;;;;;;;;;5063515;28;20100;-75
2022/06/07 06:34:52;;;;;;;7.38;1.65;;;;;;;;;;5063262;28;20040;-75
2022/06/07 06:37:18;;;;;;;10.05;1.95;;;;;;;;;;5062895;28;20033;-69
2022/06/07 06:39:44;;;;;;;9.63;2.13;;;;;;;;;;5064182;28;20393;-67
2022/06/07 06:42:11;;;;;;;9.63;4.88;;;;;;;;;;5063272;28;20036;-74
2022/06/07 06:44:37;;;;;;;420.50;221.00;;;;;;;;;;5064551;28;20504;-72
2022/06/07 06:47:03;;;;;;;8.43;3.97;;;;;;;;;;5061191;28;20039;-73
2022/06/07 06:49:30;;;;;;;8.15;1.90;;;;;;;;;;5050000;28;20085;-72
2022/06/07 06:51:57;;;;;;;12.10;2.03;;;;;;;;;;5043942;28;20427;-76
2022/06/07 06:54:23;;;;;;;29.80;12.68;;;;;;;;;;5059994;28;20240;-77
2022/06/07 06:56:49;;;;;;;10.35;3.22;;;;;;;;;;5062929;28;20032;-76
2022/06/07 06:59:16;;;;;;;9.00;3.63;;;;;;;;;;5060041;28;20167;-75
2022/06/07 07:01:42;;;;;;;6.97;1.45;;;;;;;;;;5049811;28;20047;-76
2022/06/07 07:04:14;;;;;;;9.25;1.90;;;;;;;;;;5063987;28;20056;-79
2022/06/07 07:06:41;;;;;;;7.88;1.85;;;;;;;;;;5059734;28;20050;-76
2022/06/07 07:09:07;;;;;;;17.23;8.65;;;;;;;;;;5054220;28;20396;-79
2022/06/07 07:11:44;;;;;;;6.03;1.63;;;;;;;;;;5057501;28;20396;-78
2022/06/07 07:14:10;;;;;;;14.32;5.13;;;;;;;;;;5060686;28;20377;-77
2022/06/07 07:16:44;;;;;;;12.57;1.70;;;;;;;;;;5058966;28;20043;-75
2022/06/07 07:19:11;;;;;;;6.43;1.75;;;;;;;;;;5062991;28;20108;-76
2022/06/07 07:21:39;;;;;;;6.72;2.05;;;;;;;;;;5061062;28;20078;-79
2022/06/07 07:24:08;;;;;;;6.60;1.88;;;;;;;;;;5066111;28;20064;-75
2022/06/07 07:26:35;;;;;;;8.07;2.10;;;;;;;;;;5042294;28;20021;-78
2022/06/07 07:29:01;;;;;;;10.20;2.80;;;;;;;;;;5058580;28;20032;-78
2022/06/07 07:31:30;;;;;;;13.48;2.90;;;;;;;;;;5066096;28;20044;-76
2022/06/07 07:33:57;;;;;;;8.35;2.35;;;;;;;;;;5057611;28;20016;-70
2022/06/07 07:36:23;;;;;;;9.27;3.08;;;;;;;;;;5059081;28;20029;-76
2022/06/07 07:38:49;;;;;;;7.22;2.83;;;;;;;;;;5070537;28;20077;-73
2022/06/07 07:41:20;;;;;;;15.02;6.80;;;;;;;;;;5053529;28;20119;-72
2022/06/07 07:43:47;;;;;;;17.00;5.55;;;;;;;;;;5069871;28;20049;-72
2022/06/07 07:46:13;;;;;;;6.75;2.60;;;;;;;;;;5071824;28;20033;-72
2022/06/07 07:48:39;;;;;;;12.60;3.08;;;;;;;;;;5063504;28;20105;-70
2022/06/07 07:51:06;;;;;;;8.10;3.38;;;;;;;;;;5076733;28;20049;-70
2022/06/07 07:53:32;;;;;;;6.63;2.22;;;;;;;;;;5064316;28;20037;-72
2022/06/07 07:55:58;;;;;;;6.97;1.80;;;;;;;;;;5043312;28;20416;-71
2022/06/07 07:58:24;;;;;;;8.77;2.38;;;;;;;;;;5059477;28;20052;-70
2022/06/07 08:00:50;;;;;;;12.65;2.33;;;;;;;;;;5043553;28;20093;-70
2022/06/07 08:03:17;;;;;;;11.90;2.05;;;;;;;;;;5066015;28;20463;-70
2022/06/07 08:05:43;;;;;;;8.63;2.05;;;;;;;;;;5060638;28;20073;-70
2022/06/07 08:08:09;;;;;;;9.60;1.95;;;;;;;;;;5063735;28;20055;-71
2022/06/07 08:10:36;;;;;;;13.00;1.80;;;;;;;;;;5060539;28;20024;-70
2022/06/07 08:13:02;;;;;;;11.13;2.00;;;;;;;;;;5065507;28;20056;-70
2022/06/07 08:15:29;;;;;;;11.57;3.60;;;;;;;;;;5049948;28;20055;-76
2022/06/07 08:17:57;;;;;;;12.48;3.70;;;;;;;;;;5062100;28;20040;-73
2022/06/07 08:20:23;;;;;;;9.82;2.33;;;;;;;;;;5058244;28;21742;-71
2022/06/07 08:22:50;;;;;;;10.18;2.95;;;;;;;;;;5057965;28;21146;-70
2022/06/07 08:25:17;;;;;;;8.90;2.10;;;;;;;;;;5058538;28;20241;-72
2022/06/07 08:27:43;;;;;;;11.95;1.88;;;;;;;;;;5062085;28;20108;-71
2022/06/07 08:30:10;;;;;;;11.50;4.78;;;;;;;;;;5046849;28;20028;-70
2022/06/07 08:32:36;;;;;;;19.33;9.90;;;;;;;;;;5066883;28;20036;-70
2022/06/07 08:37:47;;;;;;;9.00;1.45;;;;;;;;;;5078411;28;20035;-76
2022/06/07 08:40:17;;;;;;;14.25;2.13;;;;;;;;;;5040090;28;20029;-78
2022/06/07 08:42:52;;;;;;;12.60;2.50;;;;;;;;;;5072424;28;20035;-71
2022/06/07 08:45:24;;;;;;;9.38;1.73;;;;;;;;;;5071441;28;20059;-76
2022/06/07 08:47:56;;;;;;;7.60;1.80;;;;;;;;;;5054489;28;20063;-77
2022/06/07 08:50:23;;;;;;;16.90;3.03;;;;;;;;;;5057759;28;20029;-79
2022/06/07 08:52:51;;;;;;;26.20;15.93;;;;;;;;;;5059608;28;20468;-74
2022/06/07 08:55:20;;;;;;;9.48;2.00;;;;;;;;;;5056280;28;20067;-72
2022/06/07 08:57:58;;;;;;;12.30;3.00;;;;;;;;;;5058896;28;20040;-71
2022/06/07 09:00:29;;;;;;;10.50;3.17;;;;;;;;;;5059055;28;20088;-71
2022/06/07 09:03:08;;;;;;;10.27;2.33;;;;;;;;;;5054938;28;20389;-72
2022/06/07 09:05:34;;;;;;;8.60;2.10;;;;;;;;;;5066994;28;20283;-72
2022/06/07 09:08:00;;;;;;;6.50;1.45;;;;;;;;;;5065851;28;20036;-72
2022/06/07 09:13:23;;;;;;;8.38;2.35;;;;;;;;;;5068138;28;20055;-71
2022/06/07 09:15:51;;;;;;;12.40;2.35;;;;;;;;;;5055302;28;20025;-71
2022/06/07 09:18:19;;;;;;;11.48;2.72;;;;;;;;;;5055960;28;20106;-71
2022/06/07 09:20:48;;;;;;;15.05;2.28;;;;;;;;;;5059384;28;20119;-71
2022/06/07 09:23:18;;;;;;;7.68;1.80;;;;;;;;;;5052328;28;20031;-71
2022/06/07 09:25:48;;;;;;;9.43;2.22;;;;;;;;;;5054845;28;20024;-71
2022/06/07 09:28:31;;;;;;;7.55;1.27;;;16.00;99.90;;;;;;5053693;28;20120;-71
2022/06/07 09:30:57;;;;;;;8.48;1.40;;;;;;;;;;5055069;28;20120;-71
2022/06/07 09:33:25;;;;;;;6.90;1.35;;;;;;;;;;5061660;28;20017;-71
2022/06/07 09:35:52;;;;;;;12.23;1.42;;;;;;;;;;5060992;28;20033;-71
2022/06/07 09:38:18;;;;;;;9.13;2.35;;;;;;;;;;5038892;28;20544;-71
2022/06/07 09:40:55;;;;;;;9.73;1.70;;;;;;;;;;5064930;28;20157;-71
2022/06/07 09:43:25;;;;;;;14.65;1.80;;;;;;;;;;5056765;28;21068;-71
2022/06/07 09:45:53;;;;;;;14.02;2.22;;;;;;;;;;5060465;28;20044;-71
2022/06/07 09:48:25;;;;;;;8.25;1.85;;;;;;;;;;5061874;28;20032;-71
2022/06/07 09:50:56;;;;;;;11.70;1.90;;;;;;;;;;5058682;28;20048;-71
2022/06/07 09:53:22;;;;;;;15.27;2.17;;;;;;;;;;5043206;28;20051;-71
2022/06/07 09:56:05;;;;;;;12.45;2.70;;;;;;;;;;5042862;28;20048;-72
2022/06/07 09:58:31;;;;;;;;;;;;;;;;;;5057257;28;20032;-70
2022/06/07 10:01:16;;;;;;;12.07;1.60;;;;;;;;;;5055646;28;19920;-72
2022/06/07 10:03:45;;;;;;;13.25;2.00;;;;;;;;;;5061458;28;20090;-72
2022/06/07 10:06:26;;;;;;;16.88;1.95;;;;;;;;;;5058971;28;20040;-71
2022/06/07 10:08:55;;;;;;;9.75;2.22;;;;;;;;;;5060536;28;20028;-72
2022/06/07 10:11:29;;;;;;;12.95;1.90;;;;;;;;;;5058649;28;20048;-72
2022/06/07 10:14:35;;;;;;;11.60;2.58;;;16.00;99.90;;;;;;5060753;28;20052;-72
2022/06/07 10:17:07;;;;;;;13.70;2.80;;;;;;;;;;5057543;28;20071;-72
2022/06/07 10:19:37;;;;;;;11.48;2.00;;;;;;;;;;5057149;28;20146;-72
2022/06/07 10:22:03;;;;;;;9.73;2.30;;;;;;;;;;5061860;28;20028;-73
2022/06/07 10:24:32;;;;;;;11.45;1.73;;;;;;;;;;5059104;28;20065;-73
2022/06/07 10:27:11;;;;;;;9.48;1.50;;;;;;;;;;5042876;28;20107;-73
2022/06/07 10:29:44;;;;;;;12.40;1.60;;;;;;;;;;5044962;28;20123;-73
2022/06/07 10:32:22;;;;;;;6.65;1.65;;;;;;;;;;5060707;28;20072;-73
2022/06/07 10:34:55;;;;;;;6.15;1.50;;;;;;;;;;5056904;28;20033;-73
2022/06/07 10:37:34;;;;;;;10.65;1.75;;;;;;;;;;5062186;28;20113;-73
2022/06/07 10:40:06;;;;;;;8.02;1.52;;;;;;;;;;5042207;28;20142;-73
2022/06/07 10:42:39;;;;;;;6.10;0.82;;;;;;;;;;5042827;28;20452;-73
2022/06/07 10:45:19;;;;;;;8.35;1.00;;;;;;;;;;5058384;28;20021;-74
2022/06/07 10:47:45;;;;;;;6.18;0.90;;;;;;;;;;5058629;28;20031;-72
2022/06/07 10:50:20;;;;;;;7.30;1.50;;;;;;;;;;5059392;28;20032;-72
2022/06/07 10:52:59;;;;;;;6.25;1.67;;;;;;;;;;5062173;28;20051;-72
2022/06/07 10:55:40;;;;;;;9.52;1.40;;;;;;;;;;5063096;28;20020;-72
2022/06/07 10:58:07;;;;;;;5.88;1.45;;;;;;;;;;5046344;28;20025;-72
2022/06/07 11:00:42;;;;;;;6.80;1.13;;;;;;;;;;5063996;28;20330;-72
2022/06/07 11:03:33;;;;;;;5.28;1.20;;;;;;;;;;5064010;28;20035;-72
2022/06/07 11:09:32;;;;;;;7.13;1.48;;;;;;;;;;4983849;28;20085;-72
2022/06/07 11:12:03;;;;;;;11.52;1.85;;;;;;;;;;5045614;28;20037;-72
2022/06/07 11:14:29;;;;;;;11.93;1.90;;;;;;;;;;5063671;28;20029;-72
2022/06/07 11:17:11;;;;;;;8.73;1.60;;;;;;;;;;5066689;28;20448;-72
2022/06/07 11:19:37;;;;;;;7.50;1.67;;;;;;;;;;5063574;28;20046;-72
2022/06/07 11:22:05;;;;;;;10.98;1.27;;;;;;;;;;5063054;28;20041;-72
2022/06/07 11:24:32;;;;;;;8.70;1.77;;;;;;;;;;5053898;28;20063;-72
2022/06/07 11:27:01;;;;;;;8.10;1.45;;;;;;;;;;5063952;28;20067;-73
2022/06/07 11:29:29;;;;;;;7.15;1.13;;;;;;;;;;5060755;28;20021;-72
2022/06/07 11:31:55;;;;;;;8.65;2.00;;;;;;;;;;5062634;28;20076;-72
2022/06/07 11:34:24;;;;;;;9.35;1.60;;;;;;;;;;5064229;28;20071;-72
2022/06/07 11:36:56;;;;;;;10.77;2.92;;;18.00;99.90;;;;;;5061258;28;20028;-72
2022/06/07 11:39:22;;;;;;;5.85;1.40;;;;;;;;;;5056980;28;20025;-72
2022/06/07 11:41:51;;;;;;;7.93;1.63;;;;;;;;;;5060778;28;20498;-72
2022/06/07 11:44:17;;;;;;;13.30;2.30;;;;;;;;;;5062846;28;20036;-73
2022/06/07 11:46:46;;;;;;;7.35;1.40;;;;;;;;;;5062336;28;20487;-72
2022/06/07 11:49:27;;;;;;;13.00;2.25;;;;;;;;;;5056698;28;20097;-72
2022/06/07 11:52:02;;;;;;;11.95;1.75;;;;;;;;;;5063099;28;20040;-72
2022/06/07 11:54:45;;;;;;;11.32;1.80;;;;;;;;;;5057753;28;20041;-72
2022/06/07 11:57:24;;;;;;;7.68;1.95;;;;;;;;;;5059379;28;20042;-72
2022/06/07 11:59:52;;;;;;;10.20;2.72;;;18.10;99.90;;;;;;5063469;28;20071;-72
2022/06/07 12:02:21;;;;;;;9.45;1.95;;;;;;;;;;5063558;28;20093;-72
2022/06/07 12:04:48;;;;;;;6.28;1.25;;;;;;;;;;5055893;28;20036;-72
2022/06/07 12:07:22;;;;;;;6.70;1.40;;;;;;;;;;5064199;28;20033;-72
2022/06/07 12:09:51;;;;;;;8.95;1.75;;;;;;;;;;5055348;28;20120;-73
2022/06/07 12:12:22;;;;;;;9.18;1.42;;;;;;;;;;5060114;28;20040;-72
2022/06/07 12:14:51;;;;;;;8.27;1.60;;;;;;;;;;5063899;28;20024;-72
2022/06/07 12:17:24;;;;;;;5.15;1.27;;;;;;;;;;5046834;28;20473;-72
2022/06/07 12:19:51;;;;;;;7.97;1.30;;;;;;;;;;5059870;28;20104;-71
2022/06/07 12:22:18;;;;;;;8.88;1.80;;;;;;;;;;5060410;28;20376;-72
2022/06/07 12:25:10;;;;;;;8.77;1.48;;;;;;;;;;5066050;28;20040;-72
2022/06/07 12:27:44;;;;;;;8.02;1.40;;;;;;;;;;5044917;28;20036;-74
2022/06/07 12:30:27;;;;;;;17.70;8.00;;;18.40;99.90;;;;;;5057473;28;20067;-72
2022/06/07 12:32:54;;;;;;;8.10;1.33;;;;;;;;;;5061035;28;20098;-73
2022/06/07 12:35:23;;;;;;;10.65;1.90;;;;;;;;;;5041294;28;20052;-72
2022/06/07 12:37:53;;;;;;;10.68;1.70;;;;;;;;;;5051848;28;20060;-73
2022/06/07 12:40:37;;;;;;;13.30;2.40;;;;;;;;;;5059117;28;20029;-72
2022/06/07 12:43:04;;;;;;;8.20;1.77;;;;;;;;;;5056808;28;21503;-72
2022/06/07 12:45:33;;;;;;;9.07;1.40;;;;;;;;;;5062389;28;20472;-71
2022/06/07 12:48:17;;;;;;;9.13;1.23;;;;;;;;;;5059471;28;20082;-72
2022/06/07 12:50:45;;;;;;;9.68;1.58;;;18.70;99.90;;;;;;5062742;28;20429;-72
2022/06/07 12:53:19;;;;;;;5.38;1.20;;;;;;;;;;5062950;28;20033;-72
2022/06/07 12:55:52;;;;;;;8.15;1.27;;;;;;;;;;5060021;28;20507;-72
2022/06/07 12:58:19;;;;;;;6.90;1.23;;;;;;;;;;5058049;28;20032;-72
2022/06/07 13:00:46;;;;;;;6.72;1.33;;;;;;;;;;5054417;28;20074;-70
2022/06/07 13:03:22;;;;;;;11.23;2.03;;;;;;;;;;5052610;28;20033;-71
2022/06/07 13:05:51;;;;;;;7.05;1.38;;;;;;;;;;5055121;28;20025;-73
2022/06/07 13:08:20;;;;;;;7.95;1.30;;;;;;;;;;5060660;28;20144;-77
2022/06/07 13:10:47;;;;;;;8.55;1.20;;;;;;;;;;5060044;28;20111;-70
2022/06/07 13:13:23;;;;;;;6.00;0.95;;;;;;;;;;5041782;28;20392;-70
2022/06/07 13:15:55;;;;;;;10.80;1.98;;;;;;;;;;5062075;28;20499;-70
2022/06/07 13:18:21;;;;;;;6.68;1.15;;;;;;;;;;5057769;28;20047;-70
2022/06/07 13:20:48;;;;;;;7.88;1.30;;;;;;;;;;5059302;28;20033;-70
2022/06/07 13:23:25;;;;;;;9.40;1.73;;;;;;;;;;5062766;28;20028;-70
2022/06/07 13:25:53;;;;;;;11.52;1.40;;;;;;;;;;5059600;28;20080;-70
2022/06/07 13:28:22;;;;;;;7.95;1.67;;;;;;;;;;5057787;28;20081;-70
2022/06/07 13:30:50;;;;;;;6.18;1.25;;;;;;;;;;5057397;28;20085;-70
2022/06/07 13:33:26;;;;;;;7.82;2.28;;;;;;;;;;5063248;28;20028;-70
2022/06/07 13:35:57;;;;;;;9.63;1.75;;;;;;;;;;5059815;28;20051;-70
2022/06/07 13:38:23;;;;;;;7.07;1.50;;;;;;;;;;5061586;28;20399;-70
2022/06/07 13:40:59;;;;;;;12.90;1.58;;;;;;;;;;5057325;28;20039;-71
2022/06/07 13:43:25;;;;;;;8.98;1.50;;;;;;;;;;5058402;28;20138;-70
2022/06/07 13:45:53;;;;;;;7.00;1.67;;;;;;;;;;5061744;28;20036;-70
2022/06/07 13:48:20;;;;;;;7.38;1.67;;;;;;;;;;5066242;28;20016;-71
2022/06/07 13:53:50;;;;;;;8.13;1.73;;;;;;;;;;5057503;28;21661;-70
2022/06/07 13:56:18;;;;;;;10.50;2.10;;;;;;;;;;5053897;28;20487;-70
2022/06/07 13:58:49;;;;;;;11.98;2.30;;;;;;;;;;5054100;28;20025;-70
2022/06/07 14:01:17;;;;;;;8.20;2.00;;;;;;;;;;5051173;28;20083;-70
2022/06/07 14:03:45;;;;;;;10.23;2.28;;;;;;;;;;5056579;28;20048;-70
2022/06/07 14:06:19;;;;;;;9.43;1.75;;;;;;;;;;5060505;28;20311;-71
2022/06/07 14:08:45;;;;;;;9.50;2.10;;;;;;;;;;5058265;28;20035;-70
2022/06/07 14:11:11;;;;;;;11.93;3.25;;;;;;;;;;5055447;28;20052;-70
2022/06/07 14:13:37;;;;;;;8.73;3.05;;;;;;;;;;5055754;28;20048;-69
2022/06/07 14:16:03;;;;;;;6.15;3.00;;;;;;;;;;5058099;28;20051;-71
2022/06/07 14:18:30;;;;;;;8.10;2.00;;;;;;;;;;5054318;28;20029;-72
2022/06/07 14:20:56;;;;;;;10.68;2.30;;;;;;;;;;5066350;28;20063;-71
2022/06/07 14:23:22;;;;;;;7.30;1.50;;;;;;;;;;5059945;28;20086;-72
2022/06/07 14:25:49;;;;;;;9.32;2.22;;;;;;;;;;5044972;28;20037;-70
2022/06/07 14:28:20;;;;;;;18.20;8.45;;;;;;;;;;5061150;28;20496;-69
2022/06/07 14:30:47;;;;;;;23.48;15.27;;;;;;;;;;5056557;28;20033;-70
2022/06/07 14:33:14;;;;;;;8.55;2.50;;;;;;;;;;5060003;28;20065;-69
2022/06/07 14:35:40;;;;;;;6.20;1.40;;;;;;;;;;5058171;28;20503;-71
2022/06/07 14:38:10;;;;;;;8.60;1.45;;;;;;;;;;5062580;28;20036;-71
2022/06/07 14:40:39;;;;;;;9.43;1.60;;;;;;;;;;5063322;28;20391;-71
2022/06/07 14:43:05;;;;;;;10.68;1.55;;;;;;;;;;5060534;28;20020;-71
2022/06/07 14:45:36;;;;;;;13.52;2.05;;;;;;;;;;5061503;28;20032;-71
2022/06/07 14:48:03;;;;;;;7.10;1.40;;;;;;;;;;5067815;28;20033;-71
2022/06/07 14:50:31;;;;;;;8.68;1.58;;;;;;;;;;5059786;28;20125;-71
2022/06/07 14:52:57;;;;;;;7.22;1.92;;;;;;;;;;5052056;28;20044;-72
2022/06/07 14:55:23;;;;;;;7.88;2.13;;;;;;;;;;5044614;28;20028;-70
2022/06/07 14:57:51;;;;;;;11.07;1.95;;;;;;;;;;5064558;28;20448;-71
2022/06/07 15:00:19;;;;;;;8.00;1.73;;;;;;;;;;5061737;28;20024;-71
2022/06/07 15:02:51;;;;;;;5.05;1.33;;;;;;;;;;5061795;28;20031;-71